sensor_id;sensor_type;location;lat;lon;timestamp;P1;durP1;ratioP1;P2;durP2;ratioP2
52126;SDS011;38120;53.176;6.614;2023-03-14T00:00:57;19.88;;;5.97;;
52126;SDS011;38120;53.176;6.614;2023-03-14T00:03:22;22.70;;;5.70;;
52126;SDS011;38120;53.176;6.614;2023-03-14T00:05:48;12.15;;;4.25;;
52126;SDS011;38120;53.176;6.614;2023-03-14T00:08:14;18.13;;;4.65;;
52126;SDS011;38120;53.176;6.614;2023-03-14T00:10:40;23.13;;;5.93;;
52126;SDS011;38120;53.176;6.614;2023-03-14T00:13:06;25.37;;;5.33;;
52126;SDS011;38120;53.176;6.614;2023-03-14T00:15:33;18.88;;;4.45;;
52126;SDS011;38120;53.176;6.614;2023-03-14T00:17:59;14.55;;;4.55;;
52126;SDS011;38120;53.176;6.614;2023-03-14T00:20:25;17.75;;;5.32;;
52126;SDS011;38120;53.176;6.614;2023-03-14T00:22:51;19.80;;;5.00;;
52126;SDS011;38120;53.176;6.614;2023-03-14T00:25:17;17.33;;;4.80;;
52126;SDS011;38120;53.176;6.614;2023-03-14T00:27:42;17.00;;;4.78;;
52126;SDS011;38120;53.176;6.614;2023-03-14T00:30:08;14.80;;;4.83;;
52126;SDS011;38120;53.176;6.614;2023-03-14T00:32:36;18.83;;;4.65;;
52126;SDS011;38120;53.176;6.614;2023-03-14T00:35:02;17.07;;;4.73;;
52126;SDS011;38120;53.176;6.614;2023-03-14T00:37:29;17.30;;;5.20;;
52126;SDS011;38120;53.176;6.614;2023-03-14T00:39:55;17.02;;;5.63;;
52126;SDS011;38120;53.176;6.614;2023-03-14T00:42:20;14.88;;;5.20;;
52126;SDS011;38120;53.176;6.614;2023-03-14T00:44:46;17.63;;;4.90;;
52126;SDS011;38120;53.176;6.614;2023-03-14T00:47:12;13.73;;;4.20;;
52126;SDS011;38120;53.176;6.614;2023-03-14T00:49:38;16.40;;;4.70;;
52126;SDS011;38120;53.176;6.614;2023-03-14T00:52:03;17.83;;;5.40;;
52126;SDS011;38120;53.176;6.614;2023-03-14T00:54:29;16.40;;;4.28;;
52126;SDS011;38120;53.176;6.614;2023-03-14T00:56:55;14.18;;;3.63;;
52126;SDS011;38120;53.176;6.614;2023-03-14T00:59:21;17.17;;;4.50;;
52126;SDS011;38120;53.176;6.614;2023-03-14T01:01:46;15.73;;;4.33;;
52126;SDS011;38120;53.176;6.614;2023-03-14T01:04:12;19.38;;;5.57;;
52126;SDS011;38120;53.176;6.614;2023-03-14T01:06:38;18.40;;;4.53;;
52126;SDS011;38120;53.176;6.614;2023-03-14T01:09:04;15.00;;;3.17;;
52126;SDS011;38120;53.176;6.614;2023-03-14T01:11:31;12.90;;;3.37;;
52126;SDS011;38120;53.176;6.614;2023-03-14T01:13:59;14.15;;;4.00;;
52126;SDS011;38120;53.176;6.614;2023-03-14T01:16:25;14.68;;;4.43;;
52126;SDS011;38120;53.176;6.614;2023-03-14T01:18:52;16.33;;;4.78;;
52126;SDS011;38120;53.176;6.614;2023-03-14T01:23:52;14.63;;;3.63;;
52126;SDS011;38120;53.176;6.614;2023-03-14T01:26:20;11.45;;;4.00;;
52126;SDS011;38120;53.176;6.614;2023-03-14T01:28:48;17.52;;;4.32;;
52126;SDS011;38120;53.176;6.614;2023-03-14T01:31:14;16.88;;;4.28;;
52126;SDS011;38120;53.176;6.614;2023-03-14T01:33:41;15.43;;;4.18;;
52126;SDS011;38120;53.176;6.614;2023-03-14T01:36:07;13.75;;;4.20;;
52126;SDS011;38120;53.176;6.614;2023-03-14T01:38:35;13.45;;;3.50;;
52126;SDS011;38120;53.176;6.614;2023-03-14T01:41:02;15.60;;;3.60;;
52126;SDS011;38120;53.176;6.614;2023-03-14T01:43:28;18.80;;;4.80;;
52126;SDS011;38120;53.176;6.614;2023-03-14T01:48:31;14.52;;;4.20;;
52126;SDS011;38120;53.176;6.614;2023-03-14T01:51:08;15.70;;;4.15;;
52126;SDS011;38120;53.176;6.614;2023-03-14T01:53:38;19.48;;;4.63;;
52126;SDS011;38120;53.176;6.614;2023-03-14T01:56:06;11.63;;;3.67;;
52126;SDS011;38120;53.176;6.614;2023-03-14T01:58:34;16.33;;;3.88;;
52126;SDS011;38120;53.176;6.614;2023-03-14T02:01:00;11.10;;;4.10;;
52126;SDS011;38120;53.176;6.614;2023-03-14T02:03:27;14.10;;;3.55;;
52126;SDS011;38120;53.176;6.614;2023-03-14T02:05:56;13.07;;;3.30;;
52126;SDS011;38120;53.176;6.614;2023-03-14T02:08:25;17.35;;;3.80;;
52126;SDS011;38120;53.176;6.614;2023-03-14T02:10:53;10.60;;;3.30;;
52126;SDS011;38120;53.176;6.614;2023-03-14T02:13:19;22.00;;;3.73;;
52126;SDS011;38120;53.176;6.614;2023-03-14T02:15:46;12.77;;;4.28;;
52126;SDS011;38120;53.176;6.614;2023-03-14T02:18:12;16.52;;;4.20;;
52126;SDS011;38120;53.176;6.614;2023-03-14T02:20:44;15.60;;;3.20;;
52126;SDS011;38120;53.176;6.614;2023-03-14T02:23:15;15.52;;;2.92;;
52126;SDS011;38120;53.176;6.614;2023-03-14T02:25:54;13.15;;;2.95;;
52126;SDS011;38120;53.176;6.614;2023-03-14T02:28:27;13.25;;;2.60;;
52126;SDS011;38120;53.176;6.614;2023-03-14T02:30:53;10.73;;;2.93;;
52126;SDS011;38120;53.176;6.614;2023-03-14T02:33:19;17.10;;;3.07;;
52126;SDS011;38120;53.176;6.614;2023-03-14T02:41:08;19.55;;;3.38;;
52126;SDS011;38120;53.176;6.614;2023-03-14T02:43:34;16.23;;;2.78;;
52126;SDS011;38120;53.176;6.614;2023-03-14T02:46:00;10.00;;;4.22;;
52126;SDS011;38120;53.176;6.614;2023-03-14T02:48:28;17.08;;;2.97;;
52126;SDS011;38120;53.176;6.614;2023-03-14T02:50:59;9.55;;;2.83;;
52126;SDS011;38120;53.176;6.614;2023-03-14T02:53:35;7.53;;;2.67;;
52126;SDS011;38120;53.176;6.614;2023-03-14T02:56:02;7.30;;;2.70;;
52126;SDS011;38120;53.176;6.614;2023-03-14T02:58:29;8.18;;;2.80;;
52126;SDS011;38120;53.176;6.614;2023-03-14T03:00:55;6.97;;;2.42;;
52126;SDS011;38120;53.176;6.614;2023-03-14T03:03:21;8.32;;;2.58;;
52126;SDS011;38120;53.176;6.614;2023-03-14T03:05:50;6.80;;;2.97;;
52126;SDS011;38120;53.176;6.614;2023-03-14T03:08:17;12.88;;;2.78;;
52126;SDS011;38120;53.176;6.614;2023-03-14T03:10:45;6.55;;;2.85;;
52126;SDS011;38120;53.176;6.614;2023-03-14T03:13:10;8.53;;;2.97;;
52126;SDS011;38120;53.176;6.614;2023-03-14T03:15:36;9.18;;;2.97;;
52126;SDS011;38120;53.176;6.614;2023-03-14T03:18:02;7.03;;;2.67;;
52126;SDS011;38120;53.176;6.614;2023-03-14T03:20:28;8.85;;;2.75;;
52126;SDS011;38120;53.176;6.614;2023-03-14T03:22:53;6.47;;;3.17;;
52126;SDS011;38120;53.176;6.614;2023-03-14T03:25:19;8.30;;;2.77;;
52126;SDS011;38120;53.176;6.614;2023-03-14T03:27:45;9.60;;;3.33;;
52126;SDS011;38120;53.176;6.614;2023-03-14T03:30:11;15.57;;;3.38;;
52126;SDS011;38120;53.176;6.614;2023-03-14T03:32:37;10.65;;;3.28;;
52126;SDS011;38120;53.176;6.614;2023-03-14T03:35:03;8.98;;;3.10;;
52126;SDS011;38120;53.176;6.614;2023-03-14T03:37:32;8.07;;;3.22;;
52126;SDS011;38120;53.176;6.614;2023-03-14T03:39:59;8.18;;;3.67;;
52126;SDS011;38120;53.176;6.614;2023-03-14T03:42:26;9.23;;;3.35;;
52126;SDS011;38120;53.176;6.614;2023-03-14T03:44:52;10.00;;;3.42;;
52126;SDS011;38120;53.176;6.614;2023-03-14T03:47:18;11.73;;;3.40;;
52126;SDS011;38120;53.176;6.614;2023-03-14T03:49:44;11.13;;;3.40;;
52126;SDS011;38120;53.176;6.614;2023-03-14T03:52:09;12.37;;;3.37;;
52126;SDS011;38120;53.176;6.614;2023-03-14T03:54:35;9.37;;;3.37;;
52126;SDS011;38120;53.176;6.614;2023-03-14T03:57:03;11.57;;;4.03;;
52126;SDS011;38120;53.176;6.614;2023-03-14T03:59:29;12.77;;;4.10;;
52126;SDS011;38120;53.176;6.614;2023-03-14T04:01:54;11.53;;;4.00;;
52126;SDS011;38120;53.176;6.614;2023-03-14T04:04:20;11.27;;;3.90;;
52126;SDS011;38120;53.176;6.614;2023-03-14T04:06:46;11.97;;;4.97;;
52126;SDS011;38120;53.176;6.614;2023-03-14T04:09:11;12.47;;;4.23;;
52126;SDS011;38120;53.176;6.614;2023-03-14T04:11:37;11.80;;;4.50;;
52126;SDS011;38120;53.176;6.614;2023-03-14T04:14:03;11.88;;;4.50;;
52126;SDS011;38120;53.176;6.614;2023-03-14T04:18:56;9.35;;;4.13;;
52126;SDS011;38120;53.176;6.614;2023-03-14T04:21:22;16.70;;;5.05;;
52126;SDS011;38120;53.176;6.614;2023-03-14T04:23:49;12.57;;;4.95;;
52126;SDS011;38120;53.176;6.614;2023-03-14T04:26:15;15.40;;;4.75;;
52126;SDS011;38120;53.176;6.614;2023-03-14T04:28:41;12.60;;;5.18;;
52126;SDS011;38120;53.176;6.614;2023-03-14T04:31:15;11.98;;;4.18;;
52126;SDS011;38120;53.176;6.614;2023-03-14T04:33:43;11.00;;;4.43;;
52126;SDS011;38120;53.176;6.614;2023-03-14T04:36:09;12.95;;;4.80;;
52126;SDS011;38120;53.176;6.614;2023-03-14T04:38:35;12.80;;;5.87;;
52126;SDS011;38120;53.176;6.614;2023-03-14T04:41:01;17.10;;;6.17;;
52126;SDS011;38120;53.176;6.614;2023-03-14T04:43:27;11.80;;;5.18;;
52126;SDS011;38120;53.176;6.614;2023-03-14T04:45:53;12.88;;;6.20;;
52126;SDS011;38120;53.176;6.614;2023-03-14T04:48:19;10.10;;;5.20;;
52126;SDS011;38120;53.176;6.614;2023-03-14T04:50:46;14.13;;;5.78;;
52126;SDS011;38120;53.176;6.614;2023-03-14T04:55:38;15.07;;;6.38;;
52126;SDS011;38120;53.176;6.614;2023-03-14T04:58:04;10.47;;;5.43;;
52126;SDS011;38120;53.176;6.614;2023-03-14T05:00:30;15.03;;;6.23;;
52126;SDS011;38120;53.176;6.614;2023-03-14T05:02:56;11.27;;;5.30;;
52126;SDS011;38120;53.176;6.614;2023-03-14T05:05:21;11.97;;;4.97;;
52126;SDS011;38120;53.176;6.614;2023-03-14T05:07:47;13.23;;;5.65;;
52126;SDS011;38120;53.176;6.614;2023-03-14T05:10:13;13.43;;;5.03;;
52126;SDS011;38120;53.176;6.614;2023-03-14T05:12:39;17.50;;;6.80;;
52126;SDS011;38120;53.176;6.614;2023-03-14T05:15:05;12.90;;;5.60;;
52126;SDS011;38120;53.176;6.614;2023-03-14T05:17:34;14.20;;;5.68;;
52126;SDS011;38120;53.176;6.614;2023-03-14T05:19:59;10.20;;;4.82;;
52126;SDS011;38120;53.176;6.614;2023-03-14T05:22:25;12.73;;;6.27;;
52126;SDS011;38120;53.176;6.614;2023-03-14T05:24:51;11.05;;;4.78;;
52126;SDS011;38120;53.176;6.614;2023-03-14T05:27:21;11.77;;;5.30;;
52126;SDS011;38120;53.176;6.614;2023-03-14T05:29:47;12.20;;;4.80;;
52126;SDS011;38120;53.176;6.614;2023-03-14T05:32:13;11.83;;;4.90;;
52126;SDS011;38120;53.176;6.614;2023-03-14T05:34:39;16.13;;;5.10;;
52126;SDS011;38120;53.176;6.614;2023-03-14T05:37:05;14.10;;;5.53;;
52126;SDS011;38120;53.176;6.614;2023-03-14T05:39:30;16.63;;;5.73;;
52126;SDS011;38120;53.176;6.614;2023-03-14T05:41:56;11.20;;;4.85;;
52126;SDS011;38120;53.176;6.614;2023-03-14T05:44:22;14.17;;;5.97;;
52126;SDS011;38120;53.176;6.614;2023-03-14T05:46:48;11.50;;;4.93;;
52126;SDS011;38120;53.176;6.614;2023-03-14T05:49:14;13.15;;;5.03;;
52126;SDS011;38120;53.176;6.614;2023-03-14T05:51:39;11.97;;;4.17;;
52126;SDS011;38120;53.176;6.614;2023-03-14T05:54:05;14.23;;;5.00;;
52126;SDS011;38120;53.176;6.614;2023-03-14T05:56:31;12.55;;;5.13;;
52126;SDS011;38120;53.176;6.614;2023-03-14T05:58:58;8.55;;;3.92;;
52126;SDS011;38120;53.176;6.614;2023-03-14T06:01:27;11.50;;;4.55;;
52126;SDS011;38120;53.176;6.614;2023-03-14T06:03:52;12.40;;;4.60;;
52126;SDS011;38120;53.176;6.614;2023-03-14T06:06:18;13.68;;;4.53;;
52126;SDS011;38120;53.176;6.614;2023-03-14T06:08:44;7.80;;;4.77;;
52126;SDS011;38120;53.176;6.614;2023-03-14T06:11:10;10.70;;;4.97;;
52126;SDS011;38120;53.176;6.614;2023-03-14T06:13:35;8.00;;;4.03;;
52126;SDS011;38120;53.176;6.614;2023-03-14T06:16:01;6.60;;;3.90;;
52126;SDS011;38120;53.176;6.614;2023-03-14T06:18:27;12.17;;;3.67;;
52126;SDS011;38120;53.176;6.614;2023-03-14T06:20:53;9.47;;;4.73;;
52126;SDS011;38120;53.176;6.614;2023-03-14T06:23:20;9.00;;;4.05;;
52126;SDS011;38120;53.176;6.614;2023-03-14T06:25:47;13.75;;;5.13;;
52126;SDS011;38120;53.176;6.614;2023-03-14T06:28:13;14.52;;;5.13;;
52126;SDS011;38120;53.176;6.614;2023-03-14T06:30:38;9.43;;;3.13;;
52126;SDS011;38120;53.176;6.614;2023-03-14T06:33:04;10.13;;;5.17;;
52126;SDS011;38120;53.176;6.614;2023-03-14T06:35:30;10.03;;;4.53;;
52126;SDS011;38120;53.176;6.614;2023-03-14T06:37:55;4.87;;;1.80;;
52126;SDS011;38120;53.176;6.614;2023-03-14T06:40:21;4.97;;;1.10;;
52126;SDS011;38120;53.176;6.614;2023-03-14T06:42:47;7.40;;;1.45;;
52126;SDS011;38120;53.176;6.614;2023-03-14T06:45:13;4.47;;;1.00;;
52126;SDS011;38120;53.176;6.614;2023-03-14T06:47:39;4.05;;;1.10;;
52126;SDS011;38120;53.176;6.614;2023-03-14T06:50:05;5.50;;;1.52;;
52126;SDS011;38120;53.176;6.614;2023-03-14T06:52:32;10.88;;;2.72;;
52126;SDS011;38120;53.176;6.614;2023-03-14T06:54:58;7.20;;;1.63;;
52126;SDS011;38120;53.176;6.614;2023-03-14T06:57:23;8.40;;;1.90;;
52126;SDS011;38120;53.176;6.614;2023-03-14T06:59:49;13.73;;;2.47;;
52126;SDS011;38120;53.176;6.614;2023-03-14T07:02:15;16.47;;;2.60;;
52126;SDS011;38120;53.176;6.614;2023-03-14T07:04:40;16.53;;;2.07;;
52126;SDS011;38120;53.176;6.614;2023-03-14T07:07:06;8.60;;;1.67;;
52126;SDS011;38120;53.176;6.614;2023-03-14T07:09:32;6.22;;;2.08;;
52126;SDS011;38120;53.176;6.614;2023-03-14T07:11:59;6.10;;;1.27;;
52126;SDS011;38120;53.176;6.614;2023-03-14T07:14:25;13.13;;;2.22;;
52126;SDS011;38120;53.176;6.614;2023-03-14T07:16:51;6.85;;;1.73;;
52126;SDS011;38120;53.176;6.614;2023-03-14T07:19:17;5.67;;;1.40;;
52126;SDS011;38120;53.176;6.614;2023-03-14T07:21:42;10.30;;;1.63;;
52126;SDS011;38120;53.176;6.614;2023-03-14T07:24:08;14.57;;;2.60;;
52126;SDS011;38120;53.176;6.614;2023-03-14T07:26:34;10.40;;;1.73;;
52126;SDS011;38120;53.176;6.614;2023-03-14T07:29:00;2.85;;;1.13;;
52126;SDS011;38120;53.176;6.614;2023-03-14T07:31:28;7.53;;;1.33;;
52126;SDS011;38120;53.176;6.614;2023-03-14T07:33:54;9.82;;;1.17;;
52126;SDS011;38120;53.176;6.614;2023-03-14T07:36:20;4.33;;;1.03;;
52126;SDS011;38120;53.176;6.614;2023-03-14T07:38:46;2.17;;;0.57;;
52126;SDS011;38120;53.176;6.614;2023-03-14T07:41:12;3.00;;;0.75;;
52126;SDS011;38120;53.176;6.614;2023-03-14T07:43:38;5.82;;;1.10;;
52126;SDS011;38120;53.176;6.614;2023-03-14T07:46:04;3.00;;;0.93;;
52126;SDS011;38120;53.176;6.614;2023-03-14T07:48:30;3.67;;;1.05;;
52126;SDS011;38120;53.176;6.614;2023-03-14T07:50:56;1.70;;;0.63;;
52126;SDS011;38120;53.176;6.614;2023-03-14T07:53:22;7.25;;;0.90;;
52126;SDS011;38120;53.176;6.614;2023-03-14T07:55:50;2.63;;;0.65;;
52126;SDS011;38120;53.176;6.614;2023-03-14T07:58:19;6.13;;;0.75;;
52126;SDS011;38120;53.176;6.614;2023-03-14T08:00:49;3.53;;;0.55;;
52126;SDS011;38120;53.176;6.614;2023-03-14T08:03:16;2.78;;;0.70;;
52126;SDS011;38120;53.176;6.614;2023-03-14T08:08:08;5.07;;;1.00;;
52126;SDS011;38120;53.176;6.614;2023-03-14T08:10:34;2.53;;;0.65;;
52126;SDS011;38120;53.176;6.614;2023-03-14T08:13:00;2.77;;;0.83;;
52126;SDS011;38120;53.176;6.614;2023-03-14T08:15:27;3.38;;;0.70;;
52126;SDS011;38120;53.176;6.614;2023-03-14T08:17:54;6.15;;;0.95;;
52126;SDS011;38120;53.176;6.614;2023-03-14T08:20:20;3.50;;;1.25;;
52126;SDS011;38120;53.176;6.614;2023-03-14T08:22:48;4.93;;;1.20;;
52126;SDS011;38120;53.176;6.614;2023-03-14T08:25:14;4.97;;;0.90;;
52126;SDS011;38120;53.176;6.614;2023-03-14T08:27:40;2.47;;;1.00;;
52126;SDS011;38120;53.176;6.614;2023-03-14T08:30:07;4.88;;;1.20;;
52126;SDS011;38120;53.176;6.614;2023-03-14T08:32:39;3.88;;;1.00;;
52126;SDS011;38120;53.176;6.614;2023-03-14T08:35:04;3.97;;;1.27;;
52126;SDS011;38120;53.176;6.614;2023-03-14T08:39:57;3.70;;;0.88;;
52126;SDS011;38120;53.176;6.614;2023-03-14T08:42:23;9.33;;;1.50;;
52126;SDS011;38120;53.176;6.614;2023-03-14T08:44:49;5.77;;;2.40;;
52126;SDS011;38120;53.176;6.614;2023-03-14T08:47:16;5.22;;;1.00;;
52126;SDS011;38120;53.176;6.614;2023-03-14T08:49:42;9.47;;;2.07;;
52126;SDS011;38120;53.176;6.614;2023-03-14T08:52:07;7.15;;;1.50;;
52126;SDS011;38120;53.176;6.614;2023-03-14T08:54:33;6.57;;;2.35;;
52126;SDS011;38120;53.176;6.614;2023-03-14T08:56:59;7.73;;;1.77;;
52126;SDS011;38120;53.176;6.614;2023-03-14T08:59:25;5.77;;;1.90;;
52126;SDS011;38120;53.176;6.614;2023-03-14T09:01:51;6.13;;;1.50;;
52126;SDS011;38120;53.176;6.614;2023-03-14T09:04:16;9.87;;;2.47;;
52126;SDS011;38120;53.176;6.614;2023-03-14T09:06:42;5.43;;;1.87;;
52126;SDS011;38120;53.176;6.614;2023-03-14T09:09:08;9.03;;;2.03;;
52126;SDS011;38120;53.176;6.614;2023-03-14T09:11:33;8.27;;;2.50;;
52126;SDS011;38120;53.176;6.614;2023-03-14T09:13:59;7.03;;;1.95;;
52126;SDS011;38120;53.176;6.614;2023-03-14T09:16:26;16.02;;;2.85;;
52126;SDS011;38120;53.176;6.614;2023-03-14T09:18:52;12.00;;;2.97;;
52126;SDS011;38120;53.176;6.614;2023-03-14T09:21:22;17.13;;;4.38;;
52126;SDS011;38120;53.176;6.614;2023-03-14T09:23:48;14.93;;;2.93;;
52126;SDS011;38120;53.176;6.614;2023-03-14T09:26:14;13.80;;;3.37;;
52126;SDS011;38120;53.176;6.614;2023-03-14T09:28:40;17.17;;;3.00;;
52126;SDS011;38120;53.176;6.614;2023-03-14T09:31:09;10.63;;;3.03;;
52126;SDS011;38120;53.176;6.614;2023-03-14T09:33:36;8.60;;;2.70;;
52126;SDS011;38120;53.176;6.614;2023-03-14T09:36:03;10.90;;;3.13;;
52126;SDS011;38120;53.176;6.614;2023-03-14T09:38:29;22.00;;;5.30;;
52126;SDS011;38120;53.176;6.614;2023-03-14T09:40:55;20.07;;;2.93;;
52126;SDS011;38120;53.176;6.614;2023-03-14T09:43:24;15.75;;;3.95;;
52126;SDS011;38120;53.176;6.614;2023-03-14T09:45:54;14.07;;;3.05;;
52126;SDS011;38120;53.176;6.614;2023-03-14T09:48:22;18.15;;;3.63;;
52126;SDS011;38120;53.176;6.614;2023-03-14T09:50:53;22.60;;;4.07;;
52126;SDS011;38120;53.176;6.614;2023-03-14T09:53:23;14.20;;;3.13;;
52126;SDS011;38120;53.176;6.614;2023-03-14T09:55:52;11.05;;;3.83;;
52126;SDS011;38120;53.176;6.614;2023-03-14T09:58:21;13.65;;;3.05;;
52126;SDS011;38120;53.176;6.614;2023-03-14T10:00:49;14.02;;;3.50;;
52126;SDS011;38120;53.176;6.614;2023-03-14T10:03:21;14.82;;;3.20;;
52126;SDS011;38120;53.176;6.614;2023-03-14T10:05:48;12.63;;;2.95;;
52126;SDS011;38120;53.176;6.614;2023-03-14T10:08:14;13.38;;;4.03;;
52126;SDS011;38120;53.176;6.614;2023-03-14T10:10:40;22.43;;;5.17;;
52126;SDS011;38120;53.176;6.614;2023-03-14T10:15:35;14.15;;;3.40;;
52126;SDS011;38120;53.176;6.614;2023-03-14T10:18:05;34.15;;;6.03;;
52126;SDS011;38120;53.176;6.614;2023-03-14T10:20:44;11.75;;;3.03;;
52126;SDS011;38120;53.176;6.614;2023-03-14T10:28:31;10.63;;;2.97;;
52126;SDS011;38120;53.176;6.614;2023-03-14T10:30:59;6.63;;;2.30;;
52126;SDS011;38120;53.176;6.614;2023-03-14T10:35:59;13.57;;;3.67;;
52126;SDS011;38120;53.176;6.614;2023-03-14T10:38:26;13.70;;;3.22;;
52126;SDS011;38120;53.176;6.614;2023-03-14T10:40:54;8.68;;;2.47;;
52126;SDS011;38120;53.176;6.614;2023-03-14T10:43:27;11.52;;;3.05;;
52126;SDS011;38120;53.176;6.614;2023-03-14T10:45:58;11.27;;;2.60;;
52126;SDS011;38120;53.176;6.614;2023-03-14T10:48:37;10.75;;;3.08;;
52126;SDS011;38120;53.176;6.614;2023-03-14T10:51:11;11.00;;;2.25;;
52126;SDS011;38120;53.176;6.614;2023-03-14T10:54:01;8.38;;;2.28;;
52126;SDS011;38120;53.176;6.614;2023-03-14T10:56:58;6.68;;;1.80;;
52126;SDS011;38120;53.176;6.614;2023-03-14T10:59:27;10.57;;;2.78;;
52126;SDS011;38120;53.176;6.614;2023-03-14T11:02:00;11.32;;;2.58;;
52126;SDS011;38120;53.176;6.614;2023-03-14T11:07:44;9.07;;;2.17;;
52126;SDS011;38120;53.176;6.614;2023-03-14T11:15:34;7.55;;;1.52;;
52126;SDS011;38120;53.176;6.614;2023-03-14T11:20:53;9.50;;;2.10;;
52126;SDS011;38120;53.176;6.614;2023-03-14T11:23:31;12.70;;;1.88;;
52126;SDS011;38120;53.176;6.614;2023-03-14T11:26:29;6.88;;;1.65;;
52126;SDS011;38120;53.176;6.614;2023-03-14T11:28:55;4.10;;;1.30;;
52126;SDS011;38120;53.176;6.614;2023-03-14T11:31:25;4.38;;;1.52;;
52126;SDS011;38120;53.176;6.614;2023-03-14T11:33:56;7.75;;;1.35;;
52126;SDS011;38120;53.176;6.614;2023-03-14T11:36:52;3.20;;;1.20;;
52126;SDS011;38120;53.176;6.614;2023-03-14T11:39:26;5.60;;;1.45;;
52126;SDS011;38120;53.176;6.614;2023-03-14T11:42:01;6.28;;;1.00;;
52126;SDS011;38120;53.176;6.614;2023-03-14T11:44:36;3.90;;;1.17;;
52126;SDS011;38120;53.176;6.614;2023-03-14T11:47:14;4.80;;;1.30;;
52126;SDS011;38120;53.176;6.614;2023-03-14T11:49:51;6.80;;;1.33;;
52126;SDS011;38120;53.176;6.614;2023-03-14T11:52:25;4.82;;;1.60;;
52126;SDS011;38120;53.176;6.614;2023-03-14T11:55:00;4.97;;;1.88;;
52126;SDS011;38120;53.176;6.614;2023-03-14T11:57:43;9.25;;;2.40;;
52126;SDS011;38120;53.176;6.614;2023-03-14T12:00:16;8.25;;;1.27;;
52126;SDS011;38120;53.176;6.614;2023-03-14T12:10:59;12.35;;;1.90;;
52126;SDS011;38120;53.176;6.614;2023-03-14T12:13:49;7.07;;;0.98;;
52126;SDS011;38120;53.176;6.614;2023-03-14T12:16:20;6.88;;;1.88;;
52126;SDS011;38120;53.176;6.614;2023-03-14T12:18:52;7.55;;;2.10;;
52126;SDS011;38120;53.176;6.614;2023-03-14T12:21:18;16.40;;;2.80;;
52126;SDS011;38120;53.176;6.614;2023-03-14T12:26:26;7.13;;;1.40;;
52126;SDS011;38120;53.176;6.614;2023-03-14T12:34:24;8.00;;;2.25;;
52126;SDS011;38120;53.176;6.614;2023-03-14T12:37:10;7.75;;;1.20;;
52126;SDS011;38120;53.176;6.614;2023-03-14T12:40:15;3.10;;;1.42;;
52126;SDS011;38120;53.176;6.614;2023-03-14T12:42:59;6.47;;;1.85;;
52126;SDS011;38120;53.176;6.614;2023-03-14T12:45:30;6.68;;;1.42;;
52126;SDS011;38120;53.176;6.614;2023-03-14T13:01:53;8.43;;;2.25;;
52126;SDS011;38120;53.176;6.614;2023-03-14T13:04:59;6.03;;;2.00;;
52126;SDS011;38120;53.176;6.614;2023-03-14T13:10:26;6.78;;;1.83;;
52126;SDS011;38120;53.176;6.614;2023-03-14T13:13:03;5.80;;;1.30;;
52126;SDS011;38120;53.176;6.614;2023-03-14T13:15:57;7.20;;;1.42;;
52126;SDS011;38120;53.176;6.614;2023-03-14T13:21:39;6.60;;;1.70;;
52126;SDS011;38120;53.176;6.614;2023-03-14T13:24:05;6.35;;;1.10;;
52126;SDS011;38120;53.176;6.614;2023-03-14T13:26:43;10.95;;;1.63;;
52126;SDS011;38120;53.176;6.614;2023-03-14T13:29:30;3.92;;;1.30;;
52126;SDS011;38120;53.176;6.614;2023-03-14T13:31:57;5.78;;;1.45;;
52126;SDS011;38120;53.176;6.614;2023-03-14T13:34:25;8.68;;;1.52;;
52126;SDS011;38120;53.176;6.614;2023-03-14T13:36:53;6.53;;;1.40;;
52126;SDS011;38120;53.176;6.614;2023-03-14T13:39:20;6.18;;;1.80;;
52126;SDS011;38120;53.176;6.614;2023-03-14T13:41:50;5.05;;;1.50;;
52126;SDS011;38120;53.176;6.614;2023-03-14T13:44:18;6.18;;;1.25;;
52126;SDS011;38120;53.176;6.614;2023-03-14T13:46:49;9.00;;;1.42;;
52126;SDS011;38120;53.176;6.614;2023-03-14T13:49:21;5.75;;;1.83;;
52126;SDS011;38120;53.176;6.614;2023-03-14T13:51:48;5.57;;;1.70;;
52126;SDS011;38120;53.176;6.614;2023-03-14T13:54:16;10.65;;;1.70;;
52126;SDS011;38120;53.176;6.614;2023-03-14T13:56:43;6.22;;;1.67;;
52126;SDS011;38120;53.176;6.614;2023-03-14T13:59:26;10.68;;;2.08;;
52126;SDS011;38120;53.176;6.614;2023-03-14T14:01:54;11.13;;;2.35;;
52126;SDS011;38120;53.176;6.614;2023-03-14T14:04:22;6.20;;;1.63;;
52126;SDS011;38120;53.176;6.614;2023-03-14T14:06:52;7.28;;;1.52;;
52126;SDS011;38120;53.176;6.614;2023-03-14T14:09:21;5.53;;;1.58;;
52126;SDS011;38120;53.176;6.614;2023-03-14T14:14:26;6.82;;;1.63;;
52126;SDS011;38120;53.176;6.614;2023-03-14T14:16:58;5.05;;;1.50;;
52126;SDS011;38120;53.176;6.614;2023-03-14T14:19:27;8.95;;;1.55;;
52126;SDS011;38120;53.176;6.614;2023-03-14T14:21:55;9.15;;;2.50;;
52126;SDS011;38120;53.176;6.614;2023-03-14T14:24:23;9.20;;;1.52;;
52126;SDS011;38120;53.176;6.614;2023-03-14T14:26:53;2.35;;;0.90;;
52126;SDS011;38120;53.176;6.614;2023-03-14T14:29:28;5.78;;;1.33;;
52126;SDS011;38120;53.176;6.614;2023-03-14T14:34:41;8.23;;;1.40;;
52126;SDS011;38120;53.176;6.614;2023-03-14T14:40:00;11.07;;;1.30;;
52126;SDS011;38120;53.176;6.614;2023-03-14T14:42:51;3.83;;;1.00;;
52126;SDS011;38120;53.176;6.614;2023-03-14T14:45:19;10.38;;;1.98;;
52126;SDS011;38120;53.176;6.614;2023-03-14T14:47:50;6.22;;;1.40;;
52126;SDS011;38120;53.176;6.614;2023-03-14T14:50:30;7.35;;;1.60;;
52126;SDS011;38120;53.176;6.614;2023-03-14T14:52:57;7.13;;;1.88;;
52126;SDS011;38120;53.176;6.614;2023-03-14T14:55:29;9.18;;;1.50;;
52126;SDS011;38120;53.176;6.614;2023-03-14T15:00:50;9.35;;;1.98;;
52126;SDS011;38120;53.176;6.614;2023-03-14T15:03:18;12.57;;;3.00;;
52126;SDS011;38120;53.176;6.614;2023-03-14T15:05:44;9.93;;;1.90;;
52126;SDS011;38120;53.176;6.614;2023-03-14T15:08:10;8.00;;;1.75;;
52126;SDS011;38120;53.176;6.614;2023-03-14T15:10:37;8.00;;;2.17;;
52126;SDS011;38120;53.176;6.614;2023-03-14T15:13:03;5.68;;;1.50;;
52126;SDS011;38120;53.176;6.614;2023-03-14T15:15:28;3.72;;;1.20;;
52126;SDS011;38120;53.176;6.614;2023-03-14T15:17:54;4.85;;;1.55;;
52126;SDS011;38120;53.176;6.614;2023-03-14T15:20:20;6.07;;;1.65;;
52126;SDS011;38120;53.176;6.614;2023-03-14T15:22:48;5.55;;;1.17;;
52126;SDS011;38120;53.176;6.614;2023-03-14T15:25:15;3.45;;;1.10;;
52126;SDS011;38120;53.176;6.614;2023-03-14T15:27:41;3.60;;;1.38;;
52126;SDS011;38120;53.176;6.614;2023-03-14T15:30:11;5.15;;;1.23;;
52126;SDS011;38120;53.176;6.614;2023-03-14T15:32:38;11.52;;;2.15;;
52126;SDS011;38120;53.176;6.614;2023-03-14T15:35:04;3.93;;;1.63;;
52126;SDS011;38120;53.176;6.614;2023-03-14T15:37:30;3.92;;;1.27;;
52126;SDS011;38120;53.176;6.614;2023-03-14T15:39:56;5.68;;;1.25;;
52126;SDS011;38120;53.176;6.614;2023-03-14T15:42:24;7.45;;;1.55;;
52126;SDS011;38120;53.176;6.614;2023-03-14T15:44:50;5.03;;;1.57;;
52126;SDS011;38120;53.176;6.614;2023-03-14T15:47:16;5.90;;;1.37;;
52126;SDS011;38120;53.176;6.614;2023-03-14T15:49:42;7.40;;;1.50;;
52126;SDS011;38120;53.176;6.614;2023-03-14T15:52:09;3.10;;;1.27;;
52126;SDS011;38120;53.176;6.614;2023-03-14T15:54:35;4.32;;;0.85;;
52126;SDS011;38120;53.176;6.614;2023-03-14T15:57:00;5.90;;;1.77;;
52126;SDS011;38120;53.176;6.614;2023-03-14T15:59:26;5.20;;;1.50;;
52126;SDS011;38120;53.176;6.614;2023-03-14T16:01:52;10.13;;;1.75;;
52126;SDS011;38120;53.176;6.614;2023-03-14T16:04:18;6.20;;;1.83;;
52126;SDS011;38120;53.176;6.614;2023-03-14T16:06:44;8.75;;;2.03;;
52126;SDS011;38120;53.176;6.614;2023-03-14T16:09:10;7.30;;;2.20;;
52126;SDS011;38120;53.176;6.614;2023-03-14T16:11:37;10.30;;;1.80;;
52126;SDS011;38120;53.176;6.614;2023-03-14T16:14:02;6.13;;;2.10;;
52126;SDS011;38120;53.176;6.614;2023-03-14T16:16:28;7.73;;;1.77;;